This is the latest recevied weather packets stored in our database for station/object EB2EMZ-15. If no packets are shown the sender has not sent any weather packets the latest 1 day(s).
| Time | Temp. | Humidity | Pressure | Rain* | Wind** | Luminosity | Snow |
|---|---|---|---|---|---|---|---|
| 1778059815 | 17.78° C | 62% | 993.7 hPa | 0 mm | - | - | - |
| 1778059216 | 18.89° C | 60% | 993.8 hPa | 0 mm | - | - | - |
| 1778058011 | 21.11° C | 58% | 993.7 hPa | 0 mm | - | - | - |
| 1778057414 | 21.11° C | 61% | 993.4 hPa | 0 mm | - | - | - |
| 1778056512 | 20° C | 64% | 993.6 hPa | 0 mm | - | - | - |
| 1778056215 | 19.44° C | 66% | 993.7 hPa | 0 mm | - | - | - |
| 1778055912 | 18.89° C | 68% | 993.7 hPa | 0 mm | - | - | - |
| 1778055311 | 18.33° C | 70% | 993.7 hPa | 0 mm | - | - | - |
| 1778054712 | 17.78° C | 73% | 993.7 hPa | 0 mm | - | - | - |
| 1778053817 | 16.67° C | 74% | 993.7 hPa | 0 mm | - | - | - |
| 1778052912 | 15.56° C | 77% | 993.7 hPa | 0 mm | - | - | - |
| 1778051112 | 12.22° C | 84% | 993.7 hPa | 0 mm | - | - | - |
| 1778050812 | 12.78° C | 84% | 993.7 hPa | 0 mm | - | - | - |
| 1778050511 | 12.78° C | 84% | 993.7 hPa | 0 mm | - | - | - |
| 1778050214 | 12.78° C | 85% | 993.6 hPa | 0 mm | - | - | - |
| 1778049911 | 11.67° C | 87% | 993.6 hPa | 0 mm | - | - | - |
| 1778049614 | 11.11° C | 87% | 993.3 hPa | 0 mm | - | - | - |
| 1778048712 | 10.56° C | 88% | 993.3 hPa | 0 mm | - | - | - |
| 1778048415 | 10° C | 88% | 993.5 hPa | 0 mm | - | - | - |
| 1778048111 | 10° C | 88% | 993.4 hPa | 0 mm | - | - | - |
| 1778047815 | 10° C | 88% | 993.4 hPa | 0 mm | - | - | - |
| 1778047512 | 10° C | 88% | 993.5 hPa | 0 mm | - | - | - |
| 1778046615 | 10° C | 87% | 993.5 hPa | 0 mm | - | - | - |
| 1778046016 | 10° C | 87% | 993.6 hPa | 0 mm | - | - | - |
| 1778045712 | 9.44° C | 87% | 993.4 hPa | 0 mm | - | - | - |
* Rain latest hour (hover to see other rain measurements)
** Current wind speed in m/s (hover to see current wind gust speed)